Sign in

Advertise on goboko.com

You can reach many thousands of active pilots each month by advertising on goboko.com.

Please contact us for details.

Advertising

Info

Aviation weather - KJYO

METAR KJYO 251915Z AUTO 24007G14KT 10SM SCT110 22/08 A2982 RMK AO2

TAF KIAD 241734Z 2418/2524 31015G24KT P6SM FEW150 SCT200 FM242200 31008KT P6SM FEW150 SCT200 FM250500 31004KT P6SM FEW200 FM251700 27008KT P6SM FEW250 FM252100 25007KT P6SM FEW040

ADDS Experimental. Do not use for flight-related decisions.

Javascript required. Ce site nécessite javascript